createdAt,value
2023-02-12T00:00:58.725Z,75.20
2023-02-12T00:03:26.788Z,75.27
2023-02-12T00:05:56.432Z,75.18
2023-02-12T00:08:24.354Z,75.11
2023-02-12T00:10:52.268Z,75.75
2023-02-12T00:13:20.189Z,75.34
2023-02-12T00:15:48.113Z,75.46
2023-02-12T00:18:16.116Z,75.55
2023-02-12T00:20:44.014Z,76.08
2023-02-12T00:23:13.257Z,76.01
2023-02-12T00:25:43.093Z,76.04
2023-02-12T00:28:11.239Z,76.16
2023-02-12T00:30:39.247Z,76.46
2023-02-12T00:33:07.199Z,76.44
2023-02-12T00:35:35.048Z,76.42
2023-02-12T00:38:02.880Z,76.83
2023-02-12T00:40:32.812Z,76.81
2023-02-12T00:43:00.771Z,76.36
2023-02-12T00:45:28.710Z,77.00
2023-02-12T00:47:56.645Z,77.14
2023-02-12T00:50:24.736Z,76.21
2023-02-12T00:52:52.663Z,76.29
2023-02-12T00:55:20.601Z,76.29
2023-02-12T00:57:49.877Z,76.86
2023-02-12T01:00:18.202Z,76.59
2023-02-12T01:02:46.055Z,77.37
2023-02-12T01:05:14.042Z,77.26
2023-02-12T01:07:41.912Z,76.79
2023-02-12T01:10:11.114Z,77.67
2023-02-12T01:12:38.963Z,77.23
2023-02-12T01:15:10.421Z,77.35
2023-02-12T01:17:38.373Z,77.48
2023-02-12T01:20:08.701Z,77.28
2023-02-12T01:22:37.649Z,77.80
2023-02-12T01:25:06.208Z,77.62
2023-02-12T01:27:34.768Z,77.28
2023-02-12T01:30:02.718Z,77.92
2023-02-12T01:32:32.345Z,77.49
2023-02-12T01:35:00.502Z,77.83
2023-02-12T01:37:28.460Z,78.26
2023-02-12T01:39:57.468Z,78.32
2023-02-12T01:42:25.378Z,78.70
2023-02-12T01:45:44.150Z,79.63
2023-02-12T01:48:14.536Z,80.46
2023-02-12T01:50:45.121Z,80.46
2023-02-12T01:53:20.049Z,80.75
2023-02-12T01:55:54.641Z,81.06
2023-02-12T01:58:25.086Z,81.20
2023-02-12T02:00:53.431Z,82.05
2023-02-12T02:03:22.922Z,81.53
2023-02-12T02:05:56.868Z,81.56
2023-02-12T02:08:24.934Z,81.39
2023-02-12T02:10:52.776Z,81.57
2023-02-12T02:13:39.142Z,81.77
2023-02-12T02:16:15.146Z,81.89
2023-02-12T02:18:54.135Z,81.90
2023-02-12T02:21:51.267Z,81.73
2023-02-12T02:24:48.588Z,81.87
2023-02-12T02:27:21.470Z,82.10
2023-02-12T02:30:34.763Z,83.02
2023-02-12T02:33:23.204Z,82.98
2023-02-12T02:35:59.098Z,82.76
2023-02-12T02:38:35.606Z,82.60
2023-02-12T02:41:07.831Z,82.49
2023-02-12T02:43:39.552Z,82.60
2023-02-12T02:46:14.111Z,82.71
2023-02-12T02:48:47.637Z,82.32
2023-02-12T02:51:20.157Z,82.62
2023-02-12T02:53:52.630Z,82.45
2023-02-12T02:56:24.124Z,82.25
2023-02-12T02:58:57.026Z,82.25
2023-02-12T03:01:32.344Z,82.59
2023-02-12T03:04:04.540Z,82.25
2023-02-12T03:06:40.104Z,82.00
2023-02-12T03:09:16.218Z,82.71
2023-02-12T03:11:44.152Z,82.62
2023-02-12T03:14:17.407Z,82.14
2023-02-12T03:16:55.382Z,82.64
2023-02-12T03:19:26.838Z,82.55
2023-02-12T03:22:01.297Z,82.59
2023-02-12T03:24:36.087Z,82.48
2023-02-12T03:27:08.714Z,82.77
2023-02-12T03:29:36.989Z,82.37
2023-02-12T03:32:20.212Z,82.69
2023-02-12T03:34:52.281Z,82.52
2023-02-12T03:37:27.997Z,82.45
2023-02-12T03:40:05.982Z,82.39
2023-02-12T03:42:37.403Z,82.82
2023-02-12T03:45:11.289Z,82.43
2023-02-12T03:47:49.499Z,82.28
2023-02-12T03:50:21.840Z,82.58
2023-02-12T03:52:51.718Z,82.79
2023-02-12T03:55:19.788Z,82.33
2023-02-12T03:57:52.541Z,82.89
2023-02-12T04:00:23.080Z,82.84
2023-02-12T04:02:54.498Z,82.58
2023-02-12T04:05:24.579Z,82.55
2023-02-12T04:07:54.674Z,82.57
2023-02-12T04:10:25.849Z,82.88
2023-02-12T04:12:58.266Z,82.72
2023-02-12T04:15:44.742Z,83.19
2023-02-12T04:18:20.519Z,82.97
2023-02-12T04:20:56.774Z,83.41
2023-02-12T04:23:42.222Z,83.49
2023-02-12T04:26:17.354Z,83.27
2023-02-12T04:28:58.945Z,83.23
2023-02-12T04:31:34.438Z,82.99
2023-02-12T04:34:11.451Z,83.42
2023-02-12T04:36:46.599Z,83.59
2023-02-12T04:39:21.171Z,83.22
2023-02-12T04:41:49.630Z,83.68
2023-02-12T04:44:20.631Z,83.59
2023-02-12T04:46:48.453Z,83.49
2023-02-12T04:49:20.150Z,83.74
2023-02-12T04:51:49.451Z,83.75
2023-02-12T04:54:19.286Z,83.64
2023-02-12T04:56:47.267Z,83.88
2023-02-12T04:59:15.528Z,84.23
2023-02-12T05:01:44.336Z,84.06
2023-02-12T05:04:13.977Z,83.73
2023-02-12T05:06:44.566Z,84.03
2023-02-12T05:09:15.350Z,84.00
2023-02-12T05:11:43.646Z,83.90
2023-02-12T05:14:11.912Z,83.86
2023-02-12T05:16:39.877Z,83.79
2023-02-12T05:19:09.381Z,83.23
2023-02-12T05:21:38.030Z,83.12
2023-02-12T05:24:07.797Z,83.21
2023-02-12T05:26:35.918Z,82.99
2023-02-12T05:29:04.366Z,82.96
2023-02-12T05:31:32.397Z,82.89
2023-02-12T05:34:00.449Z,82.60
2023-02-12T05:36:28.576Z,82.90
2023-02-12T05:38:59.420Z,82.93
2023-02-12T05:41:29.115Z,83.02
2023-02-12T05:43:56.976Z,82.93
2023-02-12T05:46:24.915Z,82.71
2023-02-12T05:48:52.850Z,82.86
2023-02-12T05:51:23.039Z,83.41
2023-02-12T05:53:52.187Z,82.98
2023-02-12T05:56:22.388Z,83.00
2023-02-12T05:58:54.627Z,83.35
2023-02-12T06:01:24.642Z,83.31
2023-02-12T06:03:52.758Z,83.47
2023-02-12T06:06:20.746Z,83.34
2023-02-12T06:08:49.688Z,83.23
2023-02-12T06:11:19.321Z,83.20
2023-02-12T06:13:47.753Z,82.81
2023-02-12T06:16:22.450Z,83.04
2023-02-12T06:18:50.957Z,82.51
2023-02-12T06:21:20.111Z,82.49
2023-02-12T06:23:48.582Z,82.45
2023-02-12T06:26:17.033Z,82.02
2023-02-12T06:28:45.010Z,82.04
2023-02-12T06:31:22.557Z,81.84
2023-02-12T06:33:51.228Z,81.78
2023-02-12T06:36:19.542Z,81.82
2023-02-12T06:38:47.800Z,82.32
2023-02-12T06:41:16.117Z,82.59
2023-02-12T06:43:44.062Z,82.88
2023-02-12T06:46:12.198Z,82.81
2023-02-12T06:48:41.869Z,82.62
2023-02-12T06:51:12.443Z,83.00
2023-02-12T06:53:40.340Z,82.85
2023-02-12T06:56:11.446Z,83.02
2023-02-12T06:58:40.352Z,82.67
2023-02-12T07:01:13.776Z,82.66
2023-02-12T07:03:44.021Z,82.57
2023-02-12T07:06:11.961Z,82.93
2023-02-12T07:08:40.185Z,82.65
2023-02-12T07:11:08.936Z,82.45
2023-02-12T07:13:36.999Z,82.49
2023-02-12T07:16:06.750Z,82.07
2023-02-12T07:18:35.097Z,82.23
2023-02-12T07:21:05.617Z,82.09
2023-02-12T07:23:33.813Z,82.00
2023-02-12T07:26:03.705Z,81.94
2023-02-12T07:28:33.617Z,82.02
2023-02-12T07:31:02.080Z,81.48
2023-02-12T07:33:30.044Z,81.33
2023-02-12T07:36:01.194Z,81.10
2023-02-12T07:38:31.101Z,81.03
2023-02-12T07:41:10.441Z,81.08
2023-02-12T07:43:38.870Z,81.05
2023-02-12T07:46:08.692Z,80.79
2023-02-12T07:48:36.746Z,81.12
2023-02-12T07:51:06.638Z,81.24
2023-02-12T07:53:36.874Z,81.28
2023-02-12T07:56:10.022Z,81.06
2023-02-12T07:58:38.197Z,81.15
2023-02-12T08:01:18.027Z,81.08
2023-02-12T08:03:46.319Z,81.17
2023-02-12T08:06:15.882Z,81.16
2023-02-12T08:08:45.428Z,81.10
2023-02-12T08:11:14.999Z,81.02
2023-02-12T08:13:43.166Z,81.42
2023-02-12T08:16:13.248Z,81.13
2023-02-12T08:18:41.364Z,81.06
2023-02-12T08:21:11.225Z,80.77
2023-02-12T08:23:39.641Z,80.61
2023-02-12T08:26:14.160Z,80.38
2023-02-12T08:28:44.238Z,80.14
2023-02-12T08:31:14.206Z,80.06
2023-02-12T08:33:42.059Z,79.92
2023-02-12T08:36:12.149Z,79.66
2023-02-12T08:38:41.272Z,79.36
2023-02-12T08:41:12.760Z,79.59
2023-02-12T08:43:43.465Z,79.60
2023-02-12T08:46:15.140Z,79.39
2023-02-12T08:48:44.194Z,79.64
2023-02-12T08:51:14.414Z,79.69
2023-02-12T08:53:43.946Z,79.29
2023-02-12T08:56:15.310Z,79.02
2023-02-12T08:58:43.896Z,78.31
2023-02-12T09:01:14.028Z,77.91
2023-02-12T09:03:41.933Z,77.76
2023-02-12T09:06:10.372Z,76.82
2023-02-12T09:08:39.472Z,76.30
2023-02-12T09:11:08.223Z,75.89
2023-02-12T09:13:37.886Z,74.75
2023-02-12T09:16:06.944Z,75.21
2023-02-12T09:18:36.092Z,74.71
2023-02-12T09:21:06.543Z,73.95
2023-02-12T09:23:34.615Z,74.36
2023-02-12T09:26:06.086Z,73.89
2023-02-12T09:28:34.460Z,73.39
2023-02-12T09:31:07.758Z,72.99
2023-02-12T09:33:36.182Z,73.41
2023-02-12T09:36:04.665Z,72.69
2023-02-12T09:38:33.107Z,72.53
2023-02-12T09:41:48.724Z,71.60
2023-02-12T09:44:23.569Z,72.05
2023-02-12T09:46:57.720Z,71.91
2023-02-12T09:49:51.000Z,71.25
2023-02-12T09:52:21.309Z,71.08
2023-02-12T09:54:50.590Z,71.13
2023-02-12T09:57:22.784Z,71.24
2023-02-12T09:59:55.562Z,71.37
2023-02-12T10:02:25.490Z,71.14
2023-02-12T10:05:01.596Z,71.33
2023-02-12T10:07:41.724Z,71.08
2023-02-12T10:10:24.501Z,71.21
2023-02-12T10:12:57.877Z,70.30
2023-02-12T10:15:36.381Z,70.79
2023-02-12T10:18:21.303Z,70.05
2023-02-12T10:21:12.869Z,69.46
2023-02-12T10:23:59.956Z,69.00
2023-02-12T10:26:31.785Z,69.80
2023-02-12T10:29:10.247Z,68.92
2023-02-12T10:31:41.827Z,68.51
2023-02-12T10:34:18.999Z,68.30
2023-02-12T10:36:49.112Z,68.24
2023-02-12T10:39:22.829Z,67.91
2023-02-12T10:41:57.333Z,66.89
2023-02-12T10:44:25.297Z,66.67
2023-02-12T10:46:53.168Z,66.84
2023-02-12T10:49:22.694Z,66.64
2023-02-12T10:52:03.455Z,65.76
2023-02-12T10:54:36.833Z,65.70
2023-02-12T10:57:16.135Z,65.80
2023-02-12T10:59:45.621Z,65.84
2023-02-12T11:02:22.858Z,65.35
2023-02-12T11:04:52.599Z,65.04
2023-02-12T11:07:21.438Z,65.02
2023-02-12T11:09:51.514Z,65.25
2023-02-12T11:12:24.424Z,64.85
2023-02-12T11:14:55.070Z,64.92
2023-02-12T11:17:27.011Z,64.73
2023-02-12T11:20:20.565Z,64.40
2023-02-12T11:22:53.446Z,64.39
2023-02-12T11:25:22.306Z,64.18
2023-02-12T11:28:06.822Z,65.12
2023-02-12T11:30:35.392Z,64.68
2023-02-12T11:33:24.877Z,65.27
2023-02-12T11:35:57.544Z,64.24
2023-02-12T11:38:31.670Z,64.39
2023-02-12T11:41:08.187Z,64.23
2023-02-12T11:43:39.475Z,63.53
2023-02-12T11:46:09.381Z,63.76
2023-02-12T11:48:40.401Z,64.41
2023-02-12T11:51:19.296Z,64.41
2023-02-12T11:53:52.733Z,64.41
2023-02-12T11:56:21.684Z,64.60
2023-02-12T11:58:51.039Z,64.59
2023-02-12T12:01:23.061Z,65.31
2023-02-12T12:03:59.868Z,64.63
2023-02-12T12:06:35.830Z,64.56
2023-02-12T12:09:08.374Z,62.97
2023-02-12T12:11:42.635Z,62.40
2023-02-12T12:14:18.944Z,61.50
2023-02-12T12:17:13.810Z,61.60
2023-02-12T12:19:54.410Z,61.88
2023-02-12T12:22:37.529Z,61.91
2023-02-12T12:25:17.288Z,61.07
2023-02-12T12:28:05.841Z,61.02
2023-02-12T12:30:48.990Z,60.56
2023-02-12T12:33:21.350Z,59.49
2023-02-12T12:36:01.089Z,59.72
2023-02-12T12:38:42.357Z,60.08
2023-02-12T12:41:22.464Z,59.96
2023-02-12T12:44:02.970Z,61.24
2023-02-12T12:46:37.994Z,61.36
2023-02-12T12:49:20.185Z,62.20
2023-02-12T12:52:10.986Z,62.35
2023-02-12T12:54:58.342Z,61.76
2023-02-12T12:57:38.195Z,60.65
2023-02-12T13:00:47.925Z,59.49
2023-02-12T13:03:52.858Z,58.40
2023-02-12T13:06:33.194Z,58.64
2023-02-12T13:09:15.159Z,58.71
2023-02-12T13:11:55.262Z,58.63
2023-02-12T13:14:37.793Z,58.18
2023-02-12T13:17:12.744Z,57.97
2023-02-12T13:19:53.068Z,57.39
2023-02-12T13:22:26.408Z,57.31
2023-02-12T13:25:01.772Z,56.60
2023-02-12T13:27:34.533Z,56.89
2023-02-12T13:30:07.080Z,56.06
2023-02-12T13:32:43.271Z,56.80
2023-02-12T13:35:17.706Z,55.78
2023-02-12T13:37:49.586Z,55.68
2023-02-12T13:40:19.942Z,55.27
2023-02-12T13:42:56.810Z,54.85
2023-02-12T13:45:42.630Z,54.93
2023-02-12T13:48:25.407Z,54.54
2023-02-12T13:51:02.270Z,54.37
2023-02-12T13:53:47.035Z,54.39
2023-02-12T13:56:32.845Z,53.88
2023-02-12T13:59:02.406Z,53.88
2023-02-12T14:01:41.842Z,53.44
2023-02-12T14:04:28.354Z,52.62
2023-02-12T14:07:01.159Z,52.89
2023-02-12T14:09:40.537Z,52.64
2023-02-12T14:12:12.711Z,52.47
2023-02-12T14:14:45.182Z,52.45
2023-02-12T14:17:42.926Z,52.73
2023-02-12T14:20:28.731Z,53.02
2023-02-12T14:23:21.924Z,51.78
2023-02-12T14:25:58.785Z,51.52
2023-02-12T14:28:35.462Z,51.53
2023-02-12T14:31:33.061Z,51.20
2023-02-12T14:34:39.052Z,50.76
2023-02-12T14:37:33.164Z,50.93
2023-02-12T14:40:40.596Z,51.35
2023-02-12T14:43:34.006Z,51.93
2023-02-12T14:46:35.276Z,52.67
2023-02-12T14:49:06.083Z,52.22
2023-02-12T14:51:37.989Z,51.90
2023-02-12T14:54:14.584Z,52.29
2023-02-12T14:56:47.578Z,53.08
2023-02-12T14:59:19.159Z,52.27
2023-02-12T15:01:48.479Z,51.93
2023-02-12T15:04:25.239Z,51.54
2023-02-12T15:06:58.100Z,51.42
2023-02-12T15:09:32.738Z,50.90
2023-02-12T15:12:06.121Z,51.64
2023-02-12T15:14:37.789Z,51.71
2023-02-12T15:17:11.811Z,51.45
2023-02-12T15:19:45.598Z,51.81
2023-02-12T15:22:21.414Z,52.39
2023-02-12T15:24:49.742Z,52.39
2023-02-12T15:27:19.696Z,52.55
2023-02-12T15:29:50.195Z,52.33
2023-02-12T15:32:22.805Z,53.09
2023-02-12T15:34:53.425Z,52.91
2023-02-12T15:37:25.906Z,53.65
2023-02-12T15:39:57.020Z,54.04
2023-02-12T15:42:30.739Z,54.00
2023-02-12T15:45:22.113Z,54.74
2023-02-12T15:48:00.355Z,55.14
2023-02-12T15:50:31.808Z,56.19
2023-02-12T15:53:00.102Z,56.35
2023-02-12T15:55:34.384Z,56.59
2023-02-12T15:58:03.201Z,56.94
2023-02-12T16:00:37.681Z,57.76
2023-02-12T16:03:05.691Z,57.67
2023-02-12T16:05:35.677Z,58.43
2023-02-12T16:08:04.169Z,58.58
2023-02-12T16:10:32.085Z,59.15
2023-02-12T16:13:00.148Z,59.63
2023-02-12T16:15:31.288Z,59.63
2023-02-12T16:18:04.104Z,59.71
2023-02-12T16:20:32.649Z,59.86
2023-02-12T16:23:07.387Z,59.35
2023-02-12T16:25:35.538Z,59.61
2023-02-12T16:28:06.127Z,59.55
2023-02-12T16:30:38.779Z,60.18
2023-02-12T16:33:33.908Z,60.56
2023-02-12T16:36:02.614Z,60.96
2023-02-12T16:38:56.609Z,60.65
2023-02-12T16:41:27.092Z,61.12
2023-02-12T16:44:24.556Z,61.46
2023-02-12T16:46:55.111Z,62.05
2023-02-12T16:49:24.840Z,62.53
2023-02-12T16:51:53.382Z,62.44
2023-02-12T16:54:37.402Z,62.75
2023-02-12T16:57:05.484Z,62.71
2023-02-12T16:59:34.561Z,62.40
2023-02-12T17:02:04.817Z,62.40
2023-02-12T17:04:32.819Z,62.20
2023-02-12T17:07:00.769Z,62.89
2023-02-12T17:09:30.004Z,63.01
2023-02-12T17:11:59.309Z,63.13
2023-02-12T17:14:27.310Z,63.52
2023-02-12T17:16:55.640Z,63.12
2023-02-12T17:19:23.659Z,62.85
2023-02-12T17:21:51.978Z,63.41
2023-02-12T17:24:22.659Z,63.74
2023-02-12T17:26:51.435Z,64.02
2023-02-12T17:29:22.128Z,64.13
2023-02-12T17:31:51.635Z,64.49
2023-02-12T17:34:19.503Z,64.59
2023-02-12T17:36:47.560Z,64.42
2023-02-12T17:39:16.755Z,64.22
2023-02-12T17:41:45.766Z,64.64
2023-02-12T17:44:15.091Z,64.56
2023-02-12T17:46:45.303Z,64.46
2023-02-12T17:49:13.326Z,64.90
2023-02-12T17:51:42.659Z,64.45
2023-02-12T17:54:10.629Z,64.67
2023-02-12T17:56:38.505Z,64.82
2023-02-12T17:59:06.448Z,65.42
2023-02-12T18:01:36.006Z,65.03
2023-02-12T18:04:05.311Z,64.93
2023-02-12T18:06:33.395Z,65.03
2023-02-12T18:09:02.606Z,64.94
2023-02-12T18:11:32.166Z,64.87
2023-02-12T18:14:01.004Z,65.44
2023-02-12T18:16:31.474Z,65.09
2023-02-12T18:19:01.408Z,65.23
2023-02-12T18:21:30.920Z,65.16
2023-02-12T18:23:58.874Z,65.15
2023-02-12T18:26:29.838Z,65.00
2023-02-12T18:28:59.383Z,65.05
2023-02-12T18:31:28.143Z,65.29
2023-02-12T18:33:56.858Z,65.73
2023-02-12T18:36:25.037Z,65.74
2023-02-12T18:38:54.752Z,65.66
2023-02-12T18:41:25.060Z,65.88
2023-02-12T18:43:54.742Z,65.90
2023-02-12T18:46:24.690Z,66.01
2023-02-12T18:48:53.612Z,66.48
2023-02-12T18:51:23.448Z,66.44
2023-02-12T18:53:56.843Z,66.58
2023-02-12T18:56:24.947Z,66.55
2023-02-12T18:58:56.733Z,66.66
2023-02-12T19:01:25.568Z,66.37
2023-02-12T19:03:55.258Z,66.38
2023-02-12T19:06:23.335Z,66.25
2023-02-12T19:08:57.081Z,66.59
2023-02-12T19:11:25.785Z,66.34
2023-02-12T19:13:53.725Z,66.30
2023-02-12T19:16:23.638Z,66.41
2023-02-12T19:18:54.659Z,66.43
2023-02-12T19:21:26.143Z,66.22
2023-02-12T19:23:56.373Z,66.83
2023-02-12T19:26:24.790Z,66.92
2023-02-12T19:28:53.072Z,67.18
2023-02-12T19:31:23.439Z,67.68
2023-02-12T19:33:55.498Z,67.85
2023-02-12T19:36:23.562Z,67.96
2023-02-12T19:38:51.597Z,67.67
2023-02-12T19:41:23.650Z,67.24
2023-02-12T19:43:54.613Z,66.96
2023-02-12T19:46:22.850Z,67.21
2023-02-12T19:48:50.817Z,67.08
2023-02-12T19:51:20.905Z,67.02
2023-02-12T19:53:49.581Z,67.17
2023-02-12T19:56:17.557Z,66.94
2023-02-12T19:58:46.996Z,67.17
2023-02-12T20:01:17.616Z,67.36
2023-02-12T20:03:46.901Z,67.46
2023-02-12T20:06:17.118Z,67.75
2023-02-12T20:08:45.027Z,68.02
2023-02-12T20:11:14.706Z,67.60
2023-02-12T20:13:42.732Z,67.48
2023-02-12T20:16:15.994Z,67.60
2023-02-12T20:18:44.483Z,67.56
2023-02-12T20:21:14.075Z,68.08
2023-02-12T20:23:42.134Z,68.00
2023-02-12T20:26:14.447Z,67.83
2023-02-12T20:28:42.828Z,67.83
2023-02-12T20:31:14.359Z,67.82
2023-02-12T20:33:43.067Z,68.09
2023-02-12T20:36:12.379Z,68.35
2023-02-12T20:38:40.965Z,68.61
2023-02-12T20:41:10.305Z,68.72
2023-02-12T20:43:39.331Z,69.10
2023-02-12T20:46:09.101Z,69.46
2023-02-12T20:48:39.664Z,69.31
2023-02-12T20:51:09.923Z,69.71
2023-02-12T20:53:38.205Z,69.75
2023-02-12T20:56:08.490Z,70.04
2023-02-12T20:58:38.315Z,69.78
2023-02-12T21:01:07.475Z,69.94
2023-02-12T21:03:36.123Z,69.41
2023-02-12T21:06:06.059Z,69.18
2023-02-12T21:08:36.002Z,69.05
2023-02-12T21:11:09.527Z,68.90
2023-02-12T21:13:39.036Z,68.69
2023-02-12T21:16:09.538Z,68.60
2023-02-12T21:18:38.317Z,68.95
2023-02-12T21:21:09.536Z,68.69
2023-02-12T21:23:38.243Z,69.40
2023-02-12T21:26:08.007Z,69.01
2023-02-12T21:28:36.576Z,69.29
2023-02-12T21:31:09.257Z,69.17
2023-02-12T21:33:37.724Z,69.11
2023-02-12T21:36:10.049Z,68.63
2023-02-12T21:38:40.235Z,68.89
2023-02-12T21:41:10.190Z,68.31
2023-02-12T21:43:38.817Z,68.37
2023-02-12T21:46:07.243Z,67.91
2023-02-12T21:48:35.444Z,68.15
2023-02-12T21:51:04.054Z,68.95
2023-02-12T21:53:33.602Z,69.12
2023-02-12T21:56:03.657Z,69.18
2023-02-12T21:58:31.589Z,69.75
2023-02-12T22:01:07.146Z,70.53
2023-02-12T22:03:35.009Z,70.85
2023-02-12T22:06:03.332Z,71.27
2023-02-12T22:08:31.352Z,70.69
2023-02-12T22:11:02.547Z,70.90
2023-02-12T22:13:30.967Z,70.14
2023-02-12T22:15:59.143Z,70.17
2023-02-12T22:18:27.303Z,69.86
2023-02-12T22:21:01.122Z,69.45
2023-02-12T22:23:29.167Z,69.71
2023-02-12T22:26:04.240Z,69.25
2023-02-12T22:28:33.651Z,69.31
2023-02-12T22:31:06.575Z,69.06
2023-02-12T22:33:34.585Z,69.55
2023-02-12T22:36:05.323Z,69.21
2023-02-12T22:38:34.180Z,68.85
2023-02-12T22:41:02.365Z,68.85
2023-02-12T22:43:30.458Z,68.96
2023-02-12T22:46:00.088Z,69.12
2023-02-12T22:48:29.609Z,68.72
2023-02-12T22:50:59.047Z,68.02
2023-02-12T22:53:27.683Z,68.38
2023-02-12T22:55:55.542Z,68.91
2023-02-12T22:58:23.415Z,68.93
2023-02-12T23:00:51.228Z,68.79
2023-02-12T23:03:20.434Z,68.75
2023-02-12T23:05:48.274Z,68.94
2023-02-12T23:08:16.156Z,68.53
2023-02-12T23:10:44.036Z,68.88
2023-02-12T23:13:21.254Z,68.70
2023-02-12T23:15:56.098Z,68.26
2023-02-12T23:18:25.755Z,68.17
2023-02-12T23:20:54.456Z,68.46
2023-02-12T23:23:23.288Z,68.68
2023-02-12T23:25:53.918Z,68.29
2023-02-12T23:28:22.764Z,68.58
2023-02-12T23:30:51.707Z,67.94
2023-02-12T23:33:20.359Z,68.28
2023-02-12T23:35:50.219Z,67.91
2023-02-12T23:38:18.707Z,67.78
2023-02-12T23:40:48.097Z,67.87
2023-02-12T23:43:16.506Z,67.80
2023-02-12T23:45:45.499Z,68.06
2023-02-12T23:48:13.806Z,68.22
2023-02-12T23:50:42.158Z,67.77
2023-02-12T23:53:11.460Z,68.42
2023-02-12T23:55:40.427Z,69.22
2023-02-12T23:58:08.810Z,69.90
